Flight Track Log - Related Links

Times and Time Zones

All times are in EDT time to prevent confusion due to time zone crossing. See the THY1073 flight status page for this flight to view local times or setup timezone preferences in your user account.

Time Position Orientation Groundspeed Altitude Reporting Facility
EDT Latitude Longitude Course Direction KTS MPH feet Rate Location/Type
Thu 04:52:00 AM 41.0595 27.8337 277° West  Level Estimated
Thu 04:53:00 AM 41.0706 27.6925 276° West  Level Estimated
Thu 04:54:00 AM 41.0816 27.5512 276° West  Level Estimated
Thu 04:55:00 AM 41.0923 27.4098 276° West  Level Estimated
Thu 04:56:00 AM 41.1029 27.2684 276° West  Level Estimated
Thu 04:57:00 AM 41.1133 27.1270 276° West  Level Estimated
Thu 04:58:00 AM 41.1236 26.9855 276° West  Level Estimated
Thu 04:59:00 AM 41.1337 26.8440 275° West  Level Estimated
Thu 05:00:00 AM 41.1436 26.7024 275° West  Level Estimated
Thu 05:01:00 AM 41.1533 26.5608 275° West  Level Estimated
Thu 05:02:00 AM 41.1628 26.4192 275° West  Level Estimated
Thu 05:03:00 AM 41.1722 26.2775 275° West  Level Estimated
Thu 05:04:00 AM 41.1814 26.1357 275° West  Level Estimated
Thu 05:05:00 AM 41.1905 25.9940 275° West  Level Estimated
Thu 05:06:00 AM 41.1993 25.8522 275° West  Level Estimated
Thu 05:07:00 AM 41.2080 25.7103 275° West  Level Estimated
Thu 05:08:00 AM 41.2165 25.5684 275° West  Level Estimated
Thu 05:09:00 AM 41.2249 25.4265 275° West  Level Estimated
Thu 05:10:00 AM 41.2330 25.2845 274° West  Level Estimated
Thu 05:11:00 AM 41.2410 25.1425 274° West  Level Estimated
Thu 05:12:00 AM 41.2488 25.0005 274° West  Level Estimated
Thu 05:13:00 AM 41.2565 24.8584 274° West  Level Estimated
Thu 05:14:00 AM 41.2640 24.7164 274° West  Level Estimated
Thu 05:15:00 AM 41.2712 24.5742 274° West  Level Estimated
Thu 05:16:00 AM 41.2784 24.4321 274° West  Level Estimated
Thu 05:17:00 AM 41.2853 24.2899 274° West  Level Estimated
Thu 05:18:00 AM 41.2921 24.1476 274° West  Level Estimated
Thu 05:19:00 AM 41.2987 24.0054 274° West  Level Estimated
Thu 05:20:00 AM 41.3051 23.8631 273° West  Level Estimated
Thu 05:21:00 AM 41.3113 23.7208 273° West  Level Estimated
Thu 05:22:00 AM 41.3174 23.5785 273° West  Level Estimated
Thu 05:23:00 AM 41.3233 23.4361 273° West  Level Estimated
Thu 05:24:00 AM 41.3290 23.2938 273° West  Level Estimated
Thu 05:25:00 AM 41.3345 23.1513 273° West  Level Estimated
Thu 05:26:00 AM 41.3399 23.0089 273° West  Level Estimated
Thu 05:27:00 AM 41.3451 22.8665 273° West  Level Estimated
Thu 05:28:00 AM 41.3501 22.7240 273° West  Level Estimated
Thu 05:29:00 AM 41.3549 22.5815 273° West  Level Estimated
Thu 05:30:00 AM 41.3596 22.4390 273° West  Level Estimated
Thu 05:31:00 AM 41.3641 22.2964 272° West  Level Estimated
Thu 05:32:00 AM 41.3684 22.1539 272° West  Level Estimated
Thu 05:33:00 AM 41.3725 22.0113 272° West  Level Estimated
Thu 05:34:00 AM 41.3765 21.8687 272° West  Level Estimated
Thu 05:35:00 AM 41.3802 21.7261 272° West  Level Estimated
Thu 05:36:00 AM 41.3839 21.5835 272° West  Level Estimated
Thu 05:37:00 AM 41.3873 21.4408 272° West  Level Estimated
Thu 05:38:00 AM 41.3905 21.2981 272° West  Level Estimated
Thu 05:39:00 AM 41.3936 21.1555 272° West  Level Estimated
Thu 05:40:00 AM 41.3965 21.0128 272° West  Level Estimated
Thu 05:41:00 AM 41.3992 20.8701 272° West  Level Estimated
Thu 05:42:00 AM 41.4018 20.7274 271° West  Level Estimated
Thu 05:43:00 AM 41.4041 20.5847 271° West  Level Estimated
Thu 05:44:00 AM 41.4063 20.4419 271° West  Level Estimated
Thu 05:45:00 AM 41.4084 20.2992 271° West  Level Estimated
Thu 05:46:00 AM 41.4102 20.1564 271° West  Level Estimated
Thu 05:47:00 AM 41.4119 20.0137 271° West  Level Estimated
Thu 05:48:00 AM 41.4134 19.8709 271° West  Level Estimated
Thu 05:49:00 AM 41.4147 19.7281 271° West  Level Estimated
Thu 05:50:00 AM 41.4147 19.7206 271° West  Level Estimated
Thu 05:51:00 AM 41.4147 19.7206 21° North  Level Estimated
Thu 05:52:00 AM 41.4147 19.7206 21° North  Level Estimated
Thu 05:53:00 AM 41.4147 19.7206 21° North  Level Estimated
Thu 05:54:00 AM 41.4147 19.7206 21° North  Level Estimated
Thu 05:55:00 AM 41.4147 19.7206 21° North  Level Estimated
Thu 05:56:00 AM 41.4147 19.7206 21° North  Level Estimated
Thu 05:57:00 AM 41.4147 19.7206 21° North  Level Estimated
Thu 05:58:00 AM 41.4147 19.7206 21° North  Level Estimated
Thu 05:59:00 AM 41.4147 19.7206 21° North  Level Estimated
Thu 06:00:00 AM 41.4147 19.7206 21° North  Level Estimated
Thu 06:01:00 AM 41.4147 19.7206 21° North  Level Estimated
Thu 06:02:00 AM 41.4147 19.7206 21° North  Level Estimated
Thu 06:03:00 AM 41.4147 19.7206 21° North  Level Estimated
Thu 06:04:00 AM 41.4147 19.7206 21° North  Level Estimated
Thu 06:05:00 AM 41.4147 19.7206 21° North  Level Estimated

Login

Don't have an account? Register now (free) for customized features, flight alerts, and more!